METAR Data
IDs: Format: Raw Decoded Include TAF

Data at: 0121 UTC 06 Dec 2019

KPHT 060115Z AUTO 18007KT 10SM FEW080 SCT090 OVC110 13/02 A3007 RMK A01
KPHT 060055Z AUTO 18007KT 10SM SCT075 OVC090 13/02 A3008 RMK A01
KPHT 060035Z AUTO 17006KT 10SM SCT080 OVC100 13/02 A3007 RMK A01
KPHT 060015Z AUTO 17005KT 10SM SCT080 OVC100 13/02 A3007 RMK A01
KPHT 052355Z AUTO 17006KT 10SM BKN095 OVC120 13/01 A3006 RMK A01
KPHT 052335Z AUTO 17006KT 10SM BKN090 OVC110 13/01 A3006 RMK A01
KPHT 052315Z AUTO 15007KT 10SM SCT033 BKN095 OVC120 14/01 A3005 RMK A01
KPHT 052255Z AUTO 17005KT 10SM OVC110 13/01 A3006 RMK A01
KPHT 052235Z AUTO 17006KT 10SM OVC110 14/01 A3005 RMK A01
KPHT 052215Z AUTO 18007KT 10SM OVC110 14/01 A3005 RMK A01
KPHT 052155Z AUTO 18006KT 10SM OVC120 15/02 A3005 RMK A01
KPHT 052135Z AUTO 18006KT 10SM OVC120 15/02 A3005 RMK A01
KPHT 052115Z AUTO 19007G13KT 10SM SCT120 16/01 A3005 RMK A01
KPHT 052055Z AUTO 20008KT 10SM CLR 16/01 A3005 RMK A01
KPHT 052035Z AUTO 16007KT 10SM CLR 17/01 A3005 RMK A01
KPHT 052015Z AUTO 19007KT 10SM FEW110 16/01 A3005 RMK A01
KPHT 051955Z AUTO 16007KT 10SM BKN120 16/01 A3004 RMK A01
KPHT 051935Z AUTO 18007KT 130V210 10SM BKN120 17/01 A3005 RMK A01
KPHT 051915Z AUTO 17008KT 10SM SCT120 17/01 A3005 RMK A01
KPHT 051855Z AUTO 17009KT 10SM CLR 16/01 A3006 RMK A01
KPHT 051835Z AUTO 18008KT 10SM CLR 16/00 A3007 RMK A01
KPHT 051815Z AUTO 15008KT 10SM CLR 16/01 A3008 RMK A01
KPHT 051755Z AUTO 18009KT 10SM CLR 15/01 A3009 RMK A01
KPHT 051735Z AUTO 15007KT 10SM CLR 15/01 A3010 RMK A01
KPHT 051715Z AUTO 15008KT 10SM CLR 14/00 A3011 RMK A01
KPHT 051655Z AUTO 14010KT 10SM CLR 14/01 A3011 RMK A01
KPHT 051615Z AUTO 16010KT 10SM CLR 13/01 A3013 RMK A01
KPHT 051555Z AUTO 15009KT 10SM CLR 12/01 A3013 RMK A01
KPHT 051535Z AUTO 14006KT 10SM CLR 11/02 A3013 RMK A01
KPHT 051515Z AUTO 15005KT 10SM CLR 10/02 A3013 RMK A01
KPHT 051455Z AUTO 14005KT 10SM CLR 09/03 A3012 RMK A01
KPHT 051435Z AUTO 00000KT 10SM CLR 08/03 A3012 RMK A01
KPHT 051415Z AUTO 00000KT 10SM CLR 06/03 A3011 RMK A01
KPHT 051355Z AUTO 00000KT 10SM CLR 02/01 A3011 RMK A01
KPHT 051335Z AUTO 00000KT 10SM CLR 02/01 A3010 RMK A01
KPHT 051315Z AUTO 00000KT 10SM CLR 02/00 A3010 RMK A01
KPHT 051255Z AUTO 00000KT 10SM CLR 02/00 A3010 RMK A01
KPHT 051235Z AUTO 00000KT 10SM CLR 02/00 A3009 RMK A01
KPHT 051215Z AUTO 00000KT 10SM CLR 01/00 A3009 RMK A01
KPHT 051155Z AUTO 00000KT 10SM CLR 02/00 A3008 RMK A01
KPHT 051135Z AUTO 00000KT 10SM CLR 02/00 A3007 RMK A01
KPHT 051115Z AUTO 00000KT 10SM CLR 02/00 A3006 RMK A01
KPHT 051055Z AUTO 00000KT 10SM CLR 02/00 A3006 RMK A01
KPHT 051035Z AUTO 00000KT 10SM CLR 02/00 A3006 RMK A01
KPHT 051015Z AUTO 00000KT 10SM CLR 01/M00 A3005 RMK A01
KPHT 050955Z AUTO 00000KT 10SM CLR 01/M00 A3006 RMK A01
KPHT 050935Z AUTO 00000KT 10SM CLR 02/M00 A3005 RMK A01
KPHT 050915Z AUTO 00000KT 10SM CLR 01/M01 A3004 RMK A01
KPHT 050855Z AUTO 00000KT 10SM CLR 01/M01 A3004 RMK A01
KPHT 050835Z AUTO 00000KT 10SM CLR 01/M01 A3004 RMK A01
KPHT 050810Z AUTO 22004KT 10SM CLR 00/M01 A3004 RMK A01
KPHT 050755Z AUTO 00000KT 10SM CLR 00/M01 A3004 RMK A01
KPHT 050735Z AUTO 00000KT 10SM CLR 02/M00 A3003 RMK A01
KPHT 050715Z AUTO 00000KT 10SM CLR 01/M01 A3002 RMK A01
KPHT 050655Z AUTO 00000KT 10SM CLR 01/M01 A3001 RMK A01
KPHT 050615Z AUTO 00000KT 10SM CLR 03/00 A3002 RMK A01
KPHT 050555Z AUTO 00000KT 10SM CLR 03/00 A3002 RMK A01
KPHT 050535Z AUTO 00000KT 10SM CLR 03/00 A3001 RMK A01
KPHT 050515Z AUTO 00000KT 10SM CLR 04/00 A3001 RMK A01
KPHT 050455Z AUTO 00000KT 10SM CLR 05/M00 A3002 RMK A01
KPHT 050435Z AUTO 22003KT 10SM CLR 06/00 A3002 RMK A01
KPHT 050415Z AUTO 21004KT 10SM CLR 05/00 A3001 RMK A01
KPHT 050355Z AUTO 23005KT 10SM CLR 05/00 A3001 RMK A01
KPHT 050335Z AUTO 23005KT 10SM CLR 06/00 A3000 RMK A01
KPHT 050315Z AUTO 24006KT 10SM CLR 06/00 A3000 RMK A01
KPHT 050255Z AUTO 24005KT 10SM CLR 07/00 A3000 RMK A01
KPHT 050235Z AUTO 00000KT 10SM CLR 05/00 A3000 RMK A01
KPHT 050215Z AUTO 25004KT 10SM CLR 05/00 A2999 RMK A01
KPHT 050155Z AUTO 24005KT 10SM CLR 07/00 A2999 RMK A01
KPHT 050135Z AUTO 24004KT 10SM CLR 07/00 A2998 RMK A01
KPHT 050115Z AUTO 24004KT 10SM CLR 06/00 A2998 RMK A01
KPHT 050055Z AUTO 25004KT 10SM CLR 07/00 A2998 RMK A01
KPHT 050035Z AUTO 26004KT 10SM CLR 06/M00 A2997 RMK A01
KPHT 050015Z AUTO 25004KT 10SM CLR 07/00 A2997 RMK A01
KPHT 042355Z AUTO 25005KT 10SM CLR 08/00 A2997 RMK A01
KPHT 042335Z AUTO 25003KT 10SM CLR 07/00 A2997 RMK A01
KPHT 042315Z AUTO 25003KT 10SM CLR 09/00 A2996 RMK A01
KPHT 042255Z AUTO 25005KT 10SM CLR 09/00 A2996 RMK A01
KPHT 042235Z AUTO 24008KT 10SM CLR 10/00 A2996 RMK A01
KPHT 042215Z AUTO 26006KT 10SM CLR 12/M00 A2995 RMK A01
KPHT 042155Z AUTO 26009KT 10SM CLR 13/M01 A2995 RMK A01
KPHT 042135Z AUTO 27006KT 10SM CLR 14/M02 A2995 RMK A01
KPHT 042115Z AUTO 25007KT 10SM CLR 14/M02 A2994 RMK A01
KPHT 042055Z AUTO 27007KT 10SM CLR 14/M02 A2993 RMK A01
KPHT 042035Z AUTO 24008KT 10SM CLR 14/M01 A2993 RMK A01
KPHT 042015Z AUTO 25009KT 10SM CLR 14/M01 A2992 RMK A01
KPHT 041955Z AUTO 23008KT 10SM CLR 14/M01 A2991 RMK A01
KPHT 041935Z AUTO 26007KT 10SM CLR 14/M02 A2992 RMK A01
KPHT 041915Z AUTO 27007G14KT 10SM CLR 14/M00 A2991 RMK A01
KPHT 041855Z AUTO 23010KT 10SM CLR 13/01 A2992 RMK A01
KPHT 041835Z AUTO 24009KT 210V270 10SM CLR 13/00 A2993 RMK A01
KPHT 041815Z AUTO 25009KT 10SM CLR 13/00 A2993 RMK A01
KPHT 041755Z AUTO 28007KT 10SM CLR 13/M00 A2993 RMK A01
KPHT 041735Z AUTO 26009G14KT 250V310 10SM CLR 12/00 A2993 RMK A01
KPHT 041715Z AUTO 28006KT 10SM CLR 12/01 A2994 RMK A01
KPHT 041655Z AUTO 26008KT 10SM CLR 11/02 A2995 RMK A01
KPHT 041635Z AUTO 28005KT 10SM CLR 11/02 A2996 RMK A01
KPHT 041430Z AUTO 24005KT 10SM CLR 04/02 A2992 RMK A01
KPHT 041415Z AUTO 24006KT 10SM CLR 04/01 A2992 RMK A01
KPHT 041355Z AUTO 24007KT 10SM CLR 03/01 A2992 RMK A01
KPHT 041335Z AUTO 24005KT 10SM CLR 01/M00 A2991 RMK A01